createdAt,value
2022-10-12T00:00:20.265Z,100207.13
2022-10-12T00:03:24.945Z,100207.19
2022-10-12T00:06:28.408Z,100206.75
2022-10-12T00:09:31.624Z,100208.88
2022-10-12T00:12:35.297Z,100216.19
2022-10-12T00:15:39.296Z,100215.00
2022-10-12T00:18:43.938Z,100212.16
2022-10-12T00:21:47.183Z,100209.84
2022-10-12T00:24:50.466Z,100210.66
2022-10-12T00:27:53.633Z,100208.94
2022-10-12T00:30:56.807Z,100211.06
2022-10-12T00:34:03.229Z,100217.44
2022-10-12T00:37:25.473Z,100207.63
2022-10-12T00:40:32.273Z,100211.03
2022-10-12T00:43:39.066Z,100212.59
2022-10-12T00:46:46.225Z,100210.94
2022-10-12T00:49:55.013Z,100215.84
2022-10-12T00:53:04.279Z,100212.28
2022-10-12T00:56:12.304Z,100214.94
2022-10-12T00:59:20.879Z,100222.06
2022-10-12T01:02:25.989Z,100214.63
2022-10-12T01:05:30.539Z,100205.91
2022-10-12T01:08:34.384Z,100211.19
2022-10-12T01:11:37.574Z,100205.03
2022-10-12T01:14:40.819Z,100205.38
2022-10-12T01:17:53.376Z,100201.97
2022-10-12T01:21:11.785Z,100200.03
2022-10-12T01:24:48.647Z,100206.13
2022-10-12T01:27:55.886Z,100198.50
2022-10-12T01:31:05.931Z,100204.38
2022-10-12T01:34:14.415Z,100216.38
2022-10-12T01:37:25.299Z,100210.47
2022-10-12T01:40:34.814Z,100212.78
2022-10-12T01:43:40.043Z,100213.09
2022-10-12T01:46:46.564Z,100221.59
2022-10-12T01:49:49.884Z,100231.72
2022-10-12T01:53:04.808Z,100222.44
2022-10-12T01:56:12.935Z,100231.69
2022-10-12T01:59:27.509Z,100225.47
2022-10-12T02:02:40.230Z,100219.78
2022-10-12T02:05:49.539Z,100220.91
2022-10-12T02:08:59.916Z,100224.00
2022-10-12T02:12:07.853Z,100227.97
2022-10-12T02:15:15.764Z,100228.72
2022-10-12T02:18:22.673Z,100223.13
2022-10-12T02:21:31.223Z,100220.78
2022-10-12T02:24:38.176Z,100221.59
2022-10-12T02:27:47.516Z,100225.13
2022-10-12T02:30:55.429Z,100226.84
2022-10-12T02:34:05.937Z,100221.88
2022-10-12T02:37:13.527Z,100233.03
2022-10-12T02:40:22.989Z,100228.41
2022-10-12T02:43:30.786Z,100228.47
2022-10-12T02:46:36.203Z,100222.66
2022-10-12T02:49:42.646Z,100229.13
2022-10-12T02:52:46.428Z,100223.28
2022-10-12T02:56:02.036Z,100233.72
2022-10-12T02:59:05.239Z,100238.16
2022-10-12T03:02:09.059Z,100238.97
2022-10-12T03:05:13.623Z,100237.69
2022-10-12T03:08:16.866Z,100231.09
2022-10-12T03:11:20.284Z,100239.00
2022-10-12T03:14:23.480Z,100244.75
2022-10-12T03:17:26.701Z,100245.38
2022-10-12T03:20:31.272Z,100244.56
2022-10-12T03:23:34.599Z,100241.16
2022-10-12T03:26:37.881Z,100230.84
2022-10-12T03:29:41.149Z,100233.78
2022-10-12T03:32:44.310Z,100230.47
2022-10-12T03:35:49.296Z,100227.34
2022-10-12T03:38:52.635Z,100233.28
2022-10-12T03:41:55.806Z,100238.88
2022-10-12T03:44:58.966Z,100233.13
2022-10-12T03:48:05.120Z,100235.56
2022-10-12T03:51:09.952Z,100235.13
2022-10-12T03:54:13.120Z,100237.22
2022-10-12T03:57:16.303Z,100236.22
2022-10-12T04:00:19.995Z,100231.13
2022-10-12T04:03:23.597Z,100228.69
2022-10-12T04:06:28.213Z,100238.56
2022-10-12T04:09:31.554Z,100233.63
2022-10-12T04:12:34.956Z,100240.34
2022-10-12T04:15:38.268Z,100236.22
2022-10-12T04:18:41.615Z,100242.34
2022-10-12T04:21:46.205Z,100247.00
2022-10-12T04:24:49.409Z,100244.03
2022-10-12T04:27:52.585Z,100243.72
2022-10-12T04:30:55.843Z,100253.94
2022-10-12T04:33:59.130Z,100244.72
2022-10-12T04:37:03.870Z,100249.16
2022-10-12T04:40:08.439Z,100244.66
2022-10-12T04:43:11.793Z,100247.28
2022-10-12T04:46:15.492Z,100250.91
2022-10-12T04:49:18.678Z,100249.59
2022-10-12T04:52:23.354Z,100255.53
2022-10-12T04:55:26.713Z,100257.31
2022-10-12T04:58:29.951Z,100255.50
2022-10-12T05:01:33.221Z,100267.56
2022-10-12T05:04:36.496Z,100260.94
2022-10-12T05:07:41.323Z,100269.38
2022-10-12T05:10:46.222Z,100267.81
2022-10-12T05:13:49.476Z,100268.00
2022-10-12T05:16:52.705Z,100279.06
2022-10-12T05:19:55.826Z,100285.88
2022-10-12T05:23:00.700Z,100286.31
2022-10-12T05:26:04.449Z,100290.81
2022-10-12T05:29:07.743Z,100284.19
2022-10-12T05:32:10.954Z,100292.28
2022-10-12T05:35:14.238Z,100292.28
2022-10-12T05:38:19.160Z,100299.19
2022-10-12T05:41:22.333Z,100303.63
2022-10-12T05:44:25.861Z,100309.75
2022-10-12T05:47:29.147Z,100307.44
2022-10-12T05:50:32.348Z,100313.00
2022-10-12T05:53:37.901Z,100308.09
2022-10-12T05:56:41.203Z,100310.09
2022-10-12T05:59:44.566Z,100313.84
2022-10-12T06:02:47.753Z,100315.16
2022-10-12T06:05:51.004Z,100326.25
2022-10-12T06:08:55.580Z,100329.34
2022-10-12T06:11:59.053Z,100321.81
2022-10-12T06:15:06.122Z,100337.38
2022-10-12T06:18:09.407Z,100333.97
2022-10-12T06:24:37.625Z,100345.00
2022-10-12T06:27:40.865Z,100341.72
2022-10-12T06:30:44.121Z,100352.19
2022-10-12T06:33:47.340Z,100355.38
2022-10-12T06:36:50.553Z,100362.66
2022-10-12T06:39:55.161Z,100361.19
2022-10-12T06:43:02.664Z,100365.06
2022-10-12T06:46:06.285Z,100360.88
2022-10-12T06:49:10.428Z,100373.47
2022-10-12T06:52:13.608Z,100366.19
2022-10-12T06:55:18.424Z,100370.84
2022-10-12T06:58:21.643Z,100374.75
2022-10-12T07:01:24.953Z,100373.22
2022-10-12T07:04:28.400Z,100372.94
2022-10-12T07:07:32.792Z,100377.03
2022-10-12T07:10:37.434Z,100375.88
2022-10-12T07:13:41.065Z,100377.84
2022-10-12T07:16:44.329Z,100371.38
2022-10-12T07:19:47.756Z,100374.13
2022-10-12T07:22:50.930Z,100377.94
2022-10-12T07:25:56.125Z,100375.06
2022-10-12T07:28:59.365Z,100379.38
2022-10-12T07:32:02.861Z,100370.13
2022-10-12T07:35:06.959Z,100379.97
2022-10-12T07:38:11.116Z,100381.56
2022-10-12T07:41:16.508Z,100379.50
2022-10-12T07:44:21.038Z,100374.25
2022-10-12T07:47:24.414Z,100381.34
2022-10-12T07:50:27.700Z,100377.31
2022-10-12T07:53:30.916Z,100375.84
2022-10-12T07:56:35.726Z,100370.47
2022-10-12T07:59:39.126Z,100375.91
2022-10-12T08:02:42.472Z,100372.91
2022-10-12T08:05:45.699Z,100371.78
2022-10-12T08:08:49.441Z,100374.31
2022-10-12T08:11:54.187Z,100367.03
2022-10-12T08:14:57.453Z,100371.66
2022-10-12T08:18:00.746Z,100370.78
2022-10-12T08:21:05.702Z,100364.59
2022-10-12T08:24:09.716Z,100374.53
2022-10-12T08:27:14.321Z,100376.91
2022-10-12T08:30:17.675Z,100381.66
2022-10-12T08:33:21.304Z,100377.56
2022-10-12T08:36:24.570Z,100381.38
2022-10-12T08:39:28.165Z,100381.75
2022-10-12T08:42:45.613Z,100381.59
2022-10-12T08:45:53.929Z,100387.59
2022-10-12T08:49:01.828Z,100375.81
2022-10-12T08:52:07.115Z,100379.84
2022-10-12T08:55:21.909Z,100381.00
2022-10-12T08:58:30.083Z,100387.56
2022-10-12T09:01:38.652Z,100377.94
2022-10-12T09:04:51.968Z,100373.94
2022-10-12T09:07:59.447Z,100376.72
2022-10-12T09:11:13.388Z,100380.19
2022-10-12T09:14:23.360Z,100371.22
2022-10-12T09:17:30.765Z,100377.69
2022-10-12T09:20:41.622Z,100380.59
2022-10-12T09:23:45.396Z,100382.41
2022-10-12T09:26:53.223Z,100379.31
2022-10-12T09:30:02.897Z,100384.63
2022-10-12T09:33:18.120Z,100380.66
2022-10-12T09:36:23.492Z,100374.41
2022-10-12T09:39:31.828Z,100384.19
2022-10-12T09:42:35.746Z,100376.66
2022-10-12T09:45:40.643Z,100379.66
2022-10-12T09:48:58.594Z,100371.16
2022-10-12T09:52:02.143Z,100367.25
2022-10-12T09:55:09.153Z,100366.94
2022-10-12T09:58:21.784Z,100369.63
2022-10-12T10:01:29.494Z,100363.44
2022-10-12T10:04:33.118Z,100361.63
2022-10-12T10:07:36.451Z,100351.03
2022-10-12T10:10:49.904Z,100356.84
2022-10-12T10:13:55.049Z,100347.81
2022-10-12T10:16:59.796Z,100345.69
2022-10-12T10:20:06.444Z,100351.13
2022-10-12T10:23:25.778Z,100343.84
2022-10-12T10:26:32.008Z,100348.56
2022-10-12T10:29:37.961Z,100343.47
2022-10-12T10:32:42.702Z,100330.81
2022-10-12T10:36:01.400Z,100333.00
2022-10-12T10:39:08.327Z,100331.59
2022-10-12T10:42:13.187Z,100316.41
2022-10-12T10:45:25.587Z,100322.19
2022-10-12T10:48:33.545Z,100311.59
2022-10-12T10:51:43.149Z,100313.13
2022-10-12T10:54:46.626Z,100310.44
2022-10-12T10:57:59.062Z,100309.56
2022-10-12T11:01:07.248Z,100295.69
2022-10-12T11:04:18.818Z,100296.34
2022-10-12T11:07:29.185Z,100297.63
2022-10-12T11:10:36.284Z,100289.56
2022-10-12T11:13:44.257Z,100284.75
2022-10-12T11:16:52.240Z,100287.41
2022-10-12T11:20:07.395Z,100277.19
2022-10-12T11:23:19.824Z,100278.31
2022-10-12T11:26:29.708Z,100276.25
2022-10-12T11:29:33.035Z,100271.16
2022-10-12T11:32:40.128Z,100265.22
2022-10-12T11:35:47.167Z,100264.22
2022-10-12T11:38:54.665Z,100257.19
2022-10-12T11:42:20.823Z,100256.06
2022-10-12T11:45:28.673Z,100259.13
2022-10-12T11:48:38.139Z,100255.41
2022-10-12T11:51:46.959Z,100250.75
2022-10-12T11:54:59.524Z,100247.22
2022-10-12T11:58:13.572Z,100255.50
2022-10-12T12:01:41.652Z,100251.63
2022-10-12T12:04:47.209Z,100248.97
2022-10-12T12:07:54.545Z,100244.31
2022-10-12T12:11:07.580Z,100249.63
2022-10-12T12:14:46.736Z,100239.59
2022-10-12T12:18:13.658Z,100231.56
2022-10-12T12:21:17.019Z,100231.56
2022-10-12T12:24:21.744Z,100229.34
2022-10-12T12:27:32.883Z,100232.00
2022-10-12T12:30:39.130Z,100236.59
2022-10-12T12:33:46.333Z,100227.28
2022-10-12T12:36:51.746Z,100237.09
2022-10-12T12:39:58.961Z,100233.09
2022-10-12T12:43:37.608Z,100236.16
2022-10-12T12:47:45.220Z,100230.06
2022-10-12T12:50:42.239Z,100231.53
2022-10-12T12:53:50.229Z,100229.75
2022-10-12T12:57:28.518Z,100227.94
2022-10-12T13:00:39.419Z,100222.47
2022-10-12T13:04:16.732Z,100226.97
2022-10-12T13:07:58.161Z,100232.88
2022-10-12T13:11:39.038Z,100234.31
2022-10-12T13:15:15.254Z,100230.84
2022-10-12T13:18:48.259Z,100227.31
2022-10-12T13:21:54.182Z,100228.75
2022-10-12T13:25:02.044Z,100227.22
2022-10-12T13:28:11.741Z,100222.09
2022-10-12T13:31:20.326Z,100220.28
2022-10-12T13:34:28.328Z,100223.13
2022-10-12T13:37:33.434Z,100231.09
2022-10-12T13:40:41.527Z,100228.47
2022-10-12T13:43:47.131Z,100223.16
2022-10-12T13:46:54.955Z,100225.53
2022-10-12T13:49:58.679Z,100228.47
2022-10-12T13:53:01.829Z,100227.06
2022-10-12T13:56:10.449Z,100232.56
2022-10-12T13:59:19.223Z,100222.81
2022-10-12T14:02:26.832Z,100222.06
2022-10-12T14:05:32.230Z,100216.56
2022-10-12T14:08:36.709Z,100218.16
2022-10-12T14:11:41.631Z,100212.94
2022-10-12T14:14:47.749Z,100213.75
2022-10-12T14:17:52.757Z,100212.13
2022-10-12T14:21:07.380Z,100206.41
2022-10-12T14:24:11.732Z,100199.81
2022-10-12T14:27:24.336Z,100207.81
2022-10-12T14:30:31.076Z,100205.38
2022-10-12T14:33:35.676Z,100212.78
2022-10-12T14:36:39.076Z,100213.91
2022-10-12T14:39:43.812Z,100217.34
2022-10-12T14:42:55.968Z,100221.22
2022-10-12T14:45:59.200Z,100216.09
2022-10-12T14:49:03.819Z,100221.22
2022-10-12T14:52:07.647Z,100225.63
2022-10-12T14:55:16.817Z,100230.69
2022-10-12T14:58:20.057Z,100226.38
2022-10-12T15:01:24.564Z,100229.41
2022-10-12T15:04:29.246Z,100216.31
2022-10-12T15:07:34.660Z,100229.16
2022-10-12T15:10:38.576Z,100233.44
2022-10-12T15:13:42.548Z,100237.50
2022-10-12T15:16:45.803Z,100228.66
2022-10-12T15:19:52.460Z,100231.69
2022-10-12T15:22:55.657Z,100231.13
2022-10-12T15:26:00.403Z,100237.03
2022-10-12T15:29:03.625Z,100230.28
2022-10-12T15:32:10.294Z,100229.84
2022-10-12T15:35:20.734Z,100227.91
2022-10-12T15:38:24.132Z,100240.75
2022-10-12T15:41:27.946Z,100242.97
2022-10-12T15:44:31.177Z,100245.69
2022-10-12T15:47:34.386Z,100244.56
2022-10-12T15:50:41.412Z,100244.56
2022-10-12T15:53:45.066Z,100247.19
2022-10-12T15:56:49.595Z,100240.78
2022-10-12T15:59:53.428Z,100247.72
2022-10-12T16:02:57.879Z,100247.59
2022-10-12T16:06:02.496Z,100252.13
2022-10-12T16:09:05.769Z,100248.63
2022-10-12T16:12:09.037Z,100252.00
2022-10-12T16:15:16.440Z,100264.13
2022-10-12T16:18:19.894Z,100255.53
2022-10-12T16:21:24.551Z,100263.69
2022-10-12T16:24:27.757Z,100260.31
2022-10-12T16:27:31.083Z,100265.69
2022-10-12T16:30:34.384Z,100268.34
2022-10-12T16:33:37.766Z,100267.34
2022-10-12T16:36:42.372Z,100268.94
2022-10-12T16:39:45.926Z,100272.81
2022-10-12T16:42:53.724Z,100267.44
2022-10-12T16:45:57.520Z,100267.75
2022-10-12T16:49:00.761Z,100272.88
2022-10-12T16:52:05.439Z,100277.47
2022-10-12T16:55:09.473Z,100272.53
2022-10-12T16:58:12.776Z,100273.16
2022-10-12T17:01:16.031Z,100268.75
2022-10-12T17:04:19.586Z,100267.53
2022-10-12T17:07:24.283Z,100270.41
2022-10-12T17:10:27.462Z,100269.97
2022-10-12T17:13:32.923Z,100276.31
2022-10-12T17:16:52.368Z,100272.75
2022-10-12T17:19:55.754Z,100277.44
2022-10-12T17:23:00.414Z,100274.66
2022-10-12T17:26:03.624Z,100270.28
2022-10-12T17:29:07.556Z,100270.94
2022-10-12T17:32:12.380Z,100274.31
2022-10-12T17:35:18.961Z,100271.84
2022-10-12T17:38:23.617Z,100269.75
2022-10-12T17:41:28.863Z,100267.75
2022-10-12T17:44:32.287Z,100267.22
2022-10-12T17:47:35.525Z,100269.66
2022-10-12T17:50:38.752Z,100268.03
2022-10-12T17:53:44.172Z,100274.59
2022-10-12T17:56:47.582Z,100273.53
2022-10-12T17:59:50.783Z,100273.22
2022-10-12T18:02:54.092Z,100271.59
2022-10-12T18:05:57.322Z,100272.47
2022-10-12T18:09:03.318Z,100275.94
2022-10-12T18:12:06.854Z,100274.50
2022-10-12T18:15:10.694Z,100276.94
2022-10-12T18:18:15.378Z,100271.06
2022-10-12T18:21:19.865Z,100267.69
2022-10-12T18:24:25.160Z,100272.22
2022-10-12T18:27:28.371Z,100268.44
2022-10-12T18:30:31.527Z,100269.41
2022-10-12T18:33:35.609Z,100271.97
2022-10-12T18:36:40.009Z,100273.00
2022-10-12T18:39:44.655Z,100276.47
2022-10-12T18:42:48.149Z,100281.13
2022-10-12T18:45:51.343Z,100282.13
2022-10-12T18:48:54.569Z,100282.53
2022-10-12T18:51:58.240Z,100280.44
2022-10-12T18:55:03.045Z,100283.97
2022-10-12T18:58:06.916Z,100289.63
2022-10-12T19:01:11.758Z,100289.97
2022-10-12T19:04:15.097Z,100288.09
2022-10-12T19:07:18.336Z,100286.66
2022-10-12T19:10:23.121Z,100295.56
2022-10-12T19:13:26.450Z,100286.06
2022-10-12T19:16:30.784Z,100278.84
2022-10-12T19:19:34.029Z,100286.19
2022-10-12T19:22:37.397Z,100291.72
2022-10-12T19:25:42.093Z,100294.03
2022-10-12T19:28:45.738Z,100291.75
2022-10-12T19:31:50.934Z,100294.03
2022-10-12T19:34:54.162Z,100289.94
2022-10-12T19:37:57.607Z,100286.97
2022-10-12T19:41:02.516Z,100288.44
2022-10-12T19:44:06.122Z,100289.16
2022-10-12T19:47:09.346Z,100289.50
2022-10-12T19:50:12.566Z,100288.47
2022-10-12T19:53:16.151Z,100292.22
2022-10-12T19:56:22.041Z,100294.78
2022-10-12T19:59:25.330Z,100294.28
2022-10-12T20:02:28.550Z,100289.34
2022-10-12T20:05:31.769Z,100298.75
2022-10-12T20:08:35.440Z,100296.59
2022-10-12T20:11:40.242Z,100310.09
2022-10-12T20:14:43.504Z,100309.19
2022-10-12T20:17:46.699Z,100323.41
2022-10-12T20:20:50.455Z,100332.31
2022-10-12T20:23:53.684Z,100350.16
2022-10-12T20:26:58.359Z,100360.66
2022-10-12T20:30:01.562Z,100343.53
2022-10-12T20:33:05.557Z,100359.03
2022-10-12T20:36:11.155Z,100360.69
2022-10-12T20:39:14.499Z,100362.00
2022-10-12T20:42:21.971Z,100365.63
2022-10-12T20:45:25.571Z,100359.53
2022-10-12T20:48:28.787Z,100356.38
2022-10-12T20:51:34.180Z,100368.59
2022-10-12T20:54:37.784Z,100364.47
2022-10-12T20:57:42.415Z,100360.19
2022-10-12T21:00:45.762Z,100360.00
2022-10-12T21:03:48.995Z,100367.63
2022-10-12T21:06:53.163Z,100361.69
2022-10-12T21:09:56.370Z,100365.63
2022-10-12T21:13:00.959Z,100376.66
2022-10-12T21:16:04.189Z,100363.66
2022-10-12T21:19:07.841Z,100373.22
2022-10-12T21:22:11.764Z,100380.31
2022-10-12T21:25:15.133Z,100371.88
2022-10-12T21:28:20.069Z,100383.28
2022-10-12T21:31:27.018Z,100372.56
2022-10-12T21:34:32.755Z,100379.16
2022-10-12T21:37:36.011Z,100380.81
2022-10-12T21:40:39.308Z,100383.75
2022-10-12T21:43:44.459Z,100387.19
2022-10-12T21:46:47.699Z,100386.84
2022-10-12T21:49:50.880Z,100377.09
2022-10-12T21:52:59.329Z,100372.94
2022-10-12T21:56:06.994Z,100371.47
2022-10-12T21:59:12.057Z,100368.50
2022-10-12T22:02:15.379Z,100367.84
2022-10-12T22:05:18.770Z,100370.56
2022-10-12T22:08:22.009Z,100362.91
2022-10-12T22:11:27.262Z,100361.31
2022-10-12T22:14:31.845Z,100365.25
2022-10-12T22:17:36.004Z,100365.44
2022-10-12T22:20:39.229Z,100360.44
2022-10-12T22:23:43.067Z,100362.06
2022-10-12T22:26:46.607Z,100362.50
2022-10-12T22:29:51.873Z,100365.94
2022-10-12T22:32:55.041Z,100370.00
2022-10-12T22:36:00.154Z,100366.25
2022-10-12T22:39:04.685Z,100368.75
2022-10-12T22:42:07.892Z,100372.81
2022-10-12T22:45:12.603Z,100379.91
2022-10-12T22:48:15.865Z,100379.88
2022-10-12T22:51:22.705Z,100378.06
2022-10-12T22:54:25.958Z,100375.81
2022-10-12T22:57:31.085Z,100375.72
2022-10-12T23:00:35.803Z,100379.72
2022-10-12T23:03:39.853Z,100384.47
2022-10-12T23:06:45.870Z,100374.13
2022-10-12T23:09:49.806Z,100366.56
2022-10-12T23:12:53.002Z,100376.31
2022-10-12T23:16:02.389Z,100373.81
2022-10-12T23:19:07.024Z,100384.03
2022-10-12T23:22:10.259Z,100388.78
2022-10-12T23:25:13.453Z,100389.28
2022-10-12T23:28:16.719Z,100397.97
2022-10-12T23:31:23.050Z,100402.78
2022-10-12T23:34:29.175Z,100402.94
2022-10-12T23:37:32.389Z,100395.53
2022-10-12T23:40:36.265Z,100401.50
2022-10-12T23:43:42.986Z,100396.13
2022-10-12T23:46:47.586Z,100399.59
2022-10-12T23:49:50.838Z,100401.28
2022-10-12T23:52:54.165Z,100405.25
2022-10-12T23:55:57.784Z,100408.38
2022-10-12T23:59:02.457Z,100398.44
